sensor_id;sensor_type;location;lat;lon;timestamp;pressure;altitude;pressure_sealevel;temperature;humidity
12172;BME280;6149;52.418;13.668;2023-01-30T00:01:22;100923.81;;;1.07;100.00
12172;BME280;6149;52.418;13.668;2023-01-30T00:03:52;100930.75;;;1.09;100.00
12172;BME280;6149;52.418;13.668;2023-01-30T00:06:27;100930.78;;;1.05;100.00
12172;BME280;6149;52.418;13.668;2023-01-30T00:08:54;100918.56;;;1.11;100.00
12172;BME280;6149;52.418;13.668;2023-01-30T00:11:22;100921.22;;;1.07;100.00
12172;BME280;6149;52.418;13.668;2023-01-30T00:13:51;100907.34;;;1.06;100.00
12172;BME280;6149;52.418;13.668;2023-01-30T00:16:20;100901.25;;;1.07;100.00
12172;BME280;6149;52.418;13.668;2023-01-30T00:18:56;100901.13;;;1.18;100.00
12172;BME280;6149;52.418;13.668;2023-01-30T00:21:26;100889.06;;;1.09;100.00
12172;BME280;6149;52.418;13.668;2023-01-30T00:23:53;100885.50;;;1.16;100.00
12172;BME280;6149;52.418;13.668;2023-01-30T00:26:25;100869.97;;;1.10;100.00
12172;BME280;6149;52.418;13.668;2023-01-30T00:28:53;100857.78;;;1.12;100.00
12172;BME280;6149;52.418;13.668;2023-01-30T00:31:21;100862.91;;;1.20;100.00
12172;BME280;6149;52.418;13.668;2023-01-30T00:33:52;100857.78;;;1.12;100.00
12172;BME280;6149;52.418;13.668;2023-01-30T00:36:20;100854.31;;;1.12;100.00
12172;BME280;6149;52.418;13.668;2023-01-30T00:38:58;100835.19;;;1.13;100.00
12172;BME280;6149;52.418;13.668;2023-01-30T00:41:28;100826.63;;;1.05;100.00
12172;BME280;6149;52.418;13.668;2023-01-30T00:44:12;100811.06;;;0.98;100.00
12172;BME280;6149;52.418;13.668;2023-01-30T00:46:57;100798.88;;;1.02;100.00
12172;BME280;6149;52.418;13.668;2023-01-30T00:49:35;100804.06;;;1.07;100.00
12172;BME280;6149;52.418;13.668;2023-01-30T00:52:03;100770.09;;;1.13;100.00
12172;BME280;6149;52.418;13.668;2023-01-30T00:54:32;100766.72;;;1.08;100.00
12172;BME280;6149;52.418;13.668;2023-01-30T00:56:58;100754.66;;;0.99;100.00
12172;BME280;6149;52.418;13.668;2023-01-30T00:59:29;100740.72;;;1.05;100.00
12172;BME280;6149;52.418;13.668;2023-01-30T01:01:59;100709.56;;;0.98;100.00
12172;BME280;6149;52.418;13.668;2023-01-30T01:04:28;100713.94;;;0.95;100.00
12172;BME280;6149;52.418;13.668;2023-01-30T01:06:56;100704.28;;;1.03;100.00
12172;BME280;6149;52.418;13.668;2023-01-30T01:09:23;100697.44;;;0.94;100.00
12172;BME280;6149;52.418;13.668;2023-01-30T01:11:58;100711.34;;;0.93;100.00
12172;BME280;6149;52.418;13.668;2023-01-30T01:14:28;100708.81;;;0.87;100.00
12172;BME280;6149;52.418;13.668;2023-01-30T01:16:57;100706.22;;;0.87;100.00
12172;BME280;6149;52.418;13.668;2023-01-30T01:19:25;100706.22;;;0.87;100.00
12172;BME280;6149;52.418;13.668;2023-01-30T01:21:52;100694.09;;;0.83;100.00
12172;BME280;6149;52.418;13.668;2023-01-30T01:24:19;100712.31;;;0.83;100.00
12172;BME280;6149;52.418;13.668;2023-01-30T01:26:49;100700.94;;;0.92;100.00
12172;BME280;6149;52.418;13.668;2023-01-30T01:29:22;100675.84;;;0.86;100.00
12172;BME280;6149;52.418;13.668;2023-01-30T01:31:49;100642.84;;;0.88;100.00
12172;BME280;6149;52.418;13.668;2023-01-30T01:34:16;100630.66;;;0.92;100.00
12172;BME280;6149;52.418;13.668;2023-01-30T01:36:47;100607.38;;;0.83;100.00
12172;BME280;6149;52.418;13.668;2023-01-30T01:39:15;100612.53;;;0.86;100.00
12172;BME280;6149;52.418;13.668;2023-01-30T01:41:42;100628.88;;;0.95;100.00
12172;BME280;6149;52.418;13.668;2023-01-30T01:44:10;100628.88;;;0.97;100.00
12172;BME280;6149;52.418;13.668;2023-01-30T01:46:42;100622.06;;;0.87;100.00
12172;BME280;6149;52.418;13.668;2023-01-30T01:49:14;100624.59;;;0.93;100.00
12172;BME280;6149;52.418;13.668;2023-01-30T01:51:49;100636.78;;;0.88;100.00
12172;BME280;6149;52.418;13.668;2023-01-30T01:54:24;100643.84;;;0.80;100.00
12172;BME280;6149;52.418;13.668;2023-01-30T01:56:54;100635.91;;;0.90;100.00
12172;BME280;6149;52.418;13.668;2023-01-30T01:59:31;100649.78;;;0.91;100.00
12172;BME280;6149;52.418;13.668;2023-01-30T02:02:05;100639.34;;;0.92;100.00
12172;BME280;6149;52.418;13.668;2023-01-30T02:04:35;100642.81;;;0.91;100.00
12172;BME280;6149;52.418;13.668;2023-01-30T02:07:26;100626.31;;;0.94;100.00
12172;BME280;6149;52.418;13.668;2023-01-30T02:09:56;100615.06;;;0.90;100.00
12172;BME280;6149;52.418;13.668;2023-01-30T02:12:24;100605.53;;;0.89;100.00
12172;BME280;6149;52.418;13.668;2023-01-30T02:14:55;100589.00;;;0.93;100.00
12172;BME280;6149;52.418;13.668;2023-01-30T02:17:25;100569.16;;;0.86;100.00
12172;BME280;6149;52.418;13.668;2023-01-30T02:19:58;100563.97;;;0.85;100.00
12172;BME280;6149;52.418;13.668;2023-01-30T02:22:49;100557.06;;;0.81;100.00
12172;BME280;6149;52.418;13.668;2023-01-30T02:26:07;100556.19;;;0.82;100.00
12172;BME280;6149;52.418;13.668;2023-01-30T02:29:15;100543.25;;;0.76;100.00
12172;BME280;6149;52.418;13.668;2023-01-30T02:32:07;100538.06;;;0.76;100.00
12172;BME280;6149;52.418;13.668;2023-01-30T02:34:46;100511.06;;;0.83;100.00
12172;BME280;6149;52.418;13.668;2023-01-30T02:37:36;100507.78;;;0.73;100.00
12172;BME280;6149;52.418;13.668;2023-01-30T02:40:30;100496.31;;;0.83;100.00
12172;BME280;6149;52.418;13.668;2023-01-30T02:43:10;100506.66;;;0.88;100.00
12172;BME280;6149;52.418;13.668;2023-01-30T02:45:43;100498.81;;;0.91;100.00
12172;BME280;6149;52.418;13.668;2023-01-30T02:48:23;100505.91;;;0.80;100.00
12172;BME280;6149;52.418;13.668;2023-01-30T02:50:58;100503.34;;;0.77;100.00
12172;BME280;6149;52.418;13.668;2023-01-30T02:53:30;100498.94;;;0.82;100.00
12172;BME280;6149;52.418;13.668;2023-01-30T02:55:59;100492.88;;;0.81;100.00
12172;BME280;6149;52.418;13.668;2023-01-30T02:58:30;100475.44;;;0.88;100.00
12172;BME280;6149;52.418;13.668;2023-01-30T03:01:23;100462.28;;;0.95;100.00
12172;BME280;6149;52.418;13.668;2023-01-30T03:04:38;100459.75;;;0.91;100.00
12172;BME280;6149;52.418;13.668;2023-01-30T03:07:34;100455.53;;;0.84;100.00
12172;BME280;6149;52.418;13.668;2023-01-30T03:10:11;100438.97;;;0.89;100.00
12172;BME280;6149;52.418;13.668;2023-01-30T03:12:48;100432.13;;;0.84;100.00
12172;BME280;6149;52.418;13.668;2023-01-30T03:15:20;100439.81;;;0.91;100.00
12172;BME280;6149;52.418;13.668;2023-01-30T03:17:55;100436.47;;;0.83;100.00
12172;BME280;6149;52.418;13.668;2023-01-30T03:20:24;100439.00;;;0.86;100.00
12172;BME280;6149;52.418;13.668;2023-01-30T03:22:54;100425.16;;;0.86;100.00
12172;BME280;6149;52.418;13.668;2023-01-30T03:25:23;100426.94;;;0.82;100.00
12172;BME280;6149;52.418;13.668;2023-01-30T03:27:53;100424.34;;;0.82;100.00
12172;BME280;6149;52.418;13.668;2023-01-30T03:30:23;100421.81;;;0.78;100.00
12172;BME280;6149;52.418;13.668;2023-01-30T03:32:52;100416.56;;;0.81;100.00
12172;BME280;6149;52.418;13.668;2023-01-30T03:35:21;100407.16;;;0.74;100.00
12172;BME280;6149;52.418;13.668;2023-01-30T03:37:51;100395.97;;;0.67;100.00
12172;BME280;6149;52.418;13.668;2023-01-30T03:40:19;100406.28;;;0.73;100.00
12172;BME280;6149;52.418;13.668;2023-01-30T03:42:50;100412.41;;;0.71;100.00
12172;BME280;6149;52.418;13.668;2023-01-30T03:45:20;100395.78;;;0.78;100.00
12172;BME280;6149;52.418;13.668;2023-01-30T03:47:48;100390.56;;;0.78;100.00
12172;BME280;6149;52.418;13.668;2023-01-30T03:50:17;100396.78;;;0.71;100.00
12172;BME280;6149;52.418;13.668;2023-01-30T03:52:46;100419.31;;;0.73;100.00
12172;BME280;6149;52.418;13.668;2023-01-30T03:55:15;100395.69;;;0.84;100.00
12172;BME280;6149;52.418;13.668;2023-01-30T03:57:41;100381.06;;;0.77;100.00
12172;BME280;6149;52.418;13.668;2023-01-30T04:00:09;100375.00;;;0.75;100.00
12172;BME280;6149;52.418;13.668;2023-01-30T04:02:36;100367.13;;;0.79;100.00
12172;BME280;6149;52.418;13.668;2023-01-30T04:05:03;100353.19;;;0.83;100.00
12172;BME280;6149;52.418;13.668;2023-01-30T04:07:31;100362.72;;;0.84;100.00
12172;BME280;6149;52.418;13.668;2023-01-30T04:10:04;100360.16;;;0.81;100.00
12172;BME280;6149;52.418;13.668;2023-01-30T04:12:33;100342.72;;;0.86;100.00
12172;BME280;6149;52.418;13.668;2023-01-30T04:15:01;100340.19;;;0.82;100.00
12172;BME280;6149;52.418;13.668;2023-01-30T04:17:30;100332.25;;;0.89;100.00
12172;BME280;6149;52.418;13.668;2023-01-30T04:19:58;100333.28;;;0.81;100.00
12172;BME280;6149;52.418;13.668;2023-01-30T04:22:29;100322.75;;;0.87;100.00
12172;BME280;6149;52.418;13.668;2023-01-30T04:24:57;100317.56;;;0.87;100.00
12172;BME280;6149;52.418;13.668;2023-01-30T04:27:27;100312.47;;;0.81;100.00
12172;BME280;6149;52.418;13.668;2023-01-30T04:29:55;100310.50;;;0.93;100.00
12172;BME280;6149;52.418;13.668;2023-01-30T04:32:24;100324.44;;;0.91;100.00
12172;BME280;6149;52.418;13.668;2023-01-30T04:34:52;100308.84;;;0.89;100.00
12172;BME280;6149;52.418;13.668;2023-01-30T04:37:22;100304.41;;;0.94;100.00
12172;BME280;6149;52.418;13.668;2023-01-30T04:39:48;100307.69;;;1.06;100.00
12172;BME280;6149;52.418;13.668;2023-01-30T04:42:16;100311.28;;;0.98;100.00
12172;BME280;6149;52.418;13.668;2023-01-30T04:44:46;100311.16;;;1.05;100.00
12172;BME280;6149;52.418;13.668;2023-01-30T04:47:14;100298.09;;;1.08;100.00
12172;BME280;6149;52.418;13.668;2023-01-30T04:49:41;100303.16;;;1.14;100.00
12172;BME280;6149;52.418;13.668;2023-01-30T04:52:08;100296.09;;;1.20;100.00
12172;BME280;6149;52.418;13.668;2023-01-30T04:54:34;100295.06;;;1.27;100.00
12172;BME280;6149;52.418;13.668;2023-01-30T04:57:03;100284.69;;;1.26;100.00
12172;BME280;6149;52.418;13.668;2023-01-30T04:59:29;100277.03;;;1.18;100.00
12172;BME280;6149;52.418;13.668;2023-01-30T05:01:59;100263.91;;;1.23;100.00
12172;BME280;6149;52.418;13.668;2023-01-30T05:04:25;100269.94;;;1.25;100.00
12172;BME280;6149;52.418;13.668;2023-01-30T05:06:57;100265.75;;;1.18;100.00
12172;BME280;6149;52.418;13.668;2023-01-30T05:09:25;100263.16;;;1.18;100.00
12172;BME280;6149;52.418;13.668;2023-01-30T05:11:53;100253.53;;;1.21;100.00
12172;BME280;6149;52.418;13.668;2023-01-30T05:14:19;100245.69;;;1.23;100.00
12172;BME280;6149;52.418;13.668;2023-01-30T05:16:48;100250.94;;;1.21;100.00
12172;BME280;6149;52.418;13.668;2023-01-30T05:19:17;100237.16;;;1.16;100.00
12172;BME280;6149;52.418;13.668;2023-01-30T05:21:44;100228.47;;;1.16;100.00
12172;BME280;6149;52.418;13.668;2023-01-30T05:24:12;100235.66;;;1.06;100.00
12172;BME280;6149;52.418;13.668;2023-01-30T05:26:39;100232.09;;;1.10;100.00
12172;BME280;6149;52.418;13.668;2023-01-30T05:29:08;100232.94;;;1.11;100.00
12172;BME280;6149;52.418;13.668;2023-01-30T05:31:38;100228.69;;;1.07;100.00
12172;BME280;6149;52.418;13.668;2023-01-30T05:34:05;100222.78;;;0.98;100.00
12172;BME280;6149;52.418;13.668;2023-01-30T05:36:34;100217.56;;;0.98;100.00
12172;BME280;6149;52.418;13.668;2023-01-30T05:39:05;100226.97;;;1.06;100.00
12172;BME280;6149;52.418;13.668;2023-01-30T05:41:33;100208.72;;;1.07;100.00
12172;BME280;6149;52.418;13.668;2023-01-30T05:44:03;100200.88;;;1.09;100.00
12172;BME280;6149;52.418;13.668;2023-01-30T05:46:31;100206.25;;;1.01;100.00
12172;BME280;6149;52.418;13.668;2023-01-30T05:48:59;100209.63;;;1.06;100.00
12172;BME280;6149;52.418;13.668;2023-01-30T05:51:28;100206.94;;;1.09;100.00
12172;BME280;6149;52.418;13.668;2023-01-30T05:53:58;100204.47;;;1.03;100.00
12172;BME280;6149;52.418;13.668;2023-01-30T05:56:25;100191.53;;;0.98;100.00
12172;BME280;6149;52.418;13.668;2023-01-30T05:58:55;100187.19;;;0.99;100.00
12172;BME280;6149;52.418;13.668;2023-01-30T06:01:24;100180.38;;;0.93;100.00
12172;BME280;6149;52.418;13.668;2023-01-30T06:03:51;100172.38;;;1.03;100.00
12172;BME280;6149;52.418;13.668;2023-01-30T06:06:22;100157.53;;;1.06;100.00
12172;BME280;6149;52.418;13.668;2023-01-30T06:08:53;100154.91;;;1.08;100.00
12172;BME280;6149;52.418;13.668;2023-01-30T06:11:24;100166.16;;;1.10;100.00
12172;BME280;6149;52.418;13.668;2023-01-30T06:13:52;100166.06;;;1.13;100.00
12172;BME280;6149;52.418;13.668;2023-01-30T06:16:20;100149.66;;;1.09;100.00
12172;BME280;6149;52.418;13.668;2023-01-30T06:18:49;100161.91;;;1.06;100.00
12172;BME280;6149;52.418;13.668;2023-01-30T06:21:16;100161.94;;;1.04;100.00
12172;BME280;6149;52.418;13.668;2023-01-30T06:23:43;100168.88;;;1.04;100.00
12172;BME280;6149;52.418;13.668;2023-01-30T06:26:10;100155.88;;;1.04;100.00
12172;BME280;6149;52.418;13.668;2023-01-30T06:28:39;100165.38;;;1.05;100.00
12172;BME280;6149;52.418;13.668;2023-01-30T06:31:08;100159.09;;;1.13;100.00
12172;BME280;6149;52.418;13.668;2023-01-30T06:33:35;100158.19;;;1.16;100.00
12172;BME280;6149;52.418;13.668;2023-01-30T06:36:02;100140.72;;;1.21;100.00
12172;BME280;6149;52.418;13.668;2023-01-30T06:38:30;100146.56;;;1.30;100.00
12172;BME280;6149;52.418;13.668;2023-01-30T06:40:58;100156.97;;;1.32;100.00
12172;BME280;6149;52.418;13.668;2023-01-30T06:43:27;100166.47;;;1.33;100.00
12172;BME280;6149;52.418;13.668;2023-01-30T06:45:58;100162.94;;;1.36;100.00
12172;BME280;6149;52.418;13.668;2023-01-30T06:48:28;100160.13;;;1.46;100.00
12172;BME280;6149;52.418;13.668;2023-01-30T06:50:57;100167.16;;;1.41;100.00
12172;BME280;6149;52.418;13.668;2023-01-30T06:53:25;100161.13;;;1.39;100.00
12172;BME280;6149;52.418;13.668;2023-01-30T06:55:56;100162.78;;;1.43;100.00
12172;BME280;6149;52.418;13.668;2023-01-30T06:58:23;100158.41;;;1.45;100.00
12172;BME280;6149;52.418;13.668;2023-01-30T07:00:50;100153.78;;;1.56;100.00
12172;BME280;6149;52.418;13.668;2023-01-30T07:03:20;100154.69;;;1.54;100.00
12172;BME280;6149;52.418;13.668;2023-01-30T07:05:47;100148.66;;;1.52;100.00
12172;BME280;6149;52.418;13.668;2023-01-30T07:08:14;100142.88;;;1.76;100.00
12172;BME280;6149;52.418;13.668;2023-01-30T07:10:45;100136.22;;;1.64;100.00
12172;BME280;6149;52.418;13.668;2023-01-30T07:13:11;100130.00;;;1.70;100.00
12172;BME280;6149;52.418;13.668;2023-01-30T07:15:38;100122.84;;;1.78;100.00
12172;BME280;6149;52.418;13.668;2023-01-30T07:18:06;100130.44;;;1.86;100.00
12172;BME280;6149;52.418;13.668;2023-01-30T07:20:46;100123.78;;;1.76;100.00
12172;BME280;6149;52.418;13.668;2023-01-30T07:23:18;100120.44;;;1.71;100.00
12172;BME280;6149;52.418;13.668;2023-01-30T07:25:46;100109.84;;;1.77;100.00
12172;BME280;6149;52.418;13.668;2023-01-30T07:28:14;100106.88;;;1.90;100.00
12172;BME280;6149;52.418;13.668;2023-01-30T07:30:42;100105.06;;;1.94;100.00
12172;BME280;6149;52.418;13.668;2023-01-30T07:33:11;100099.06;;;1.90;100.00
12172;BME280;6149;52.418;13.668;2023-01-30T07:35:40;100092.00;;;1.94;100.00
12172;BME280;6149;52.418;13.668;2023-01-30T07:38:08;100101.66;;;1.90;100.00
12172;BME280;6149;52.418;13.668;2023-01-30T07:40:36;100097.13;;;1.98;100.00
12172;BME280;6149;52.418;13.668;2023-01-30T07:43:09;100101.50;;;1.96;100.00
12172;BME280;6149;52.418;13.668;2023-01-30T07:45:38;100106.38;;;2.10;100.00
12172;BME280;6149;52.418;13.668;2023-01-30T07:48:08;100102.50;;;2.23;100.00
12172;BME280;6149;52.418;13.668;2023-01-30T07:50:40;100102.78;;;2.14;100.00
12172;BME280;6149;52.418;13.668;2023-01-30T07:53:10;100101.00;;;2.16;100.00
12172;BME280;6149;52.418;13.668;2023-01-30T07:55:39;100106.13;;;2.19;100.00
12172;BME280;6149;52.418;13.668;2023-01-30T07:58:10;100110.34;;;2.23;100.00
12172;BME280;6149;52.418;13.668;2023-01-30T08:00:38;100114.69;;;2.23;100.00
12172;BME280;6149;52.418;13.668;2023-01-30T08:03:05;100107.47;;;2.32;100.00
12172;BME280;6149;52.418;13.668;2023-01-30T08:05:31;100115.22;;;2.35;100.00
12172;BME280;6149;52.418;13.668;2023-01-30T08:08:04;100107.47;;;2.32;100.00
12172;BME280;6149;52.418;13.668;2023-01-30T08:10:32;100125.59;;;2.39;100.00
12172;BME280;6149;52.418;13.668;2023-01-30T08:13:00;100116.03;;;2.38;100.00
12172;BME280;6149;52.418;13.668;2023-01-30T08:15:28;100118.66;;;2.38;100.00
12172;BME280;6149;52.418;13.668;2023-01-30T08:17:57;100106.59;;;2.33;100.00
12172;BME280;6149;52.418;13.668;2023-01-30T08:20:26;100116.91;;;2.38;100.00
12172;BME280;6149;52.418;13.668;2023-01-30T08:22:54;100112.53;;;2.39;100.00
12172;BME280;6149;52.418;13.668;2023-01-30T08:25:24;100116.63;;;2.49;100.00
12172;BME280;6149;52.418;13.668;2023-01-30T08:27:54;100108.91;;;2.44;100.00
12172;BME280;6149;52.418;13.668;2023-01-30T08:30:21;100122.81;;;2.45;100.00
12172;BME280;6149;52.418;13.668;2023-01-30T08:32:52;100114.22;;;2.41;100.00
12172;BME280;6149;52.418;13.668;2023-01-30T08:35:21;100105.31;;;2.48;100.00
12172;BME280;6149;52.418;13.668;2023-01-30T08:37:51;100104.47;;;2.48;100.00
12172;BME280;6149;52.418;13.668;2023-01-30T08:40:32;100112.13;;;2.54;100.00
12172;BME280;6149;52.418;13.668;2023-01-30T08:43:02;100094.41;;;2.63;100.00
12172;BME280;6149;52.418;13.668;2023-01-30T08:45:37;100094.41;;;2.63;100.00
12172;BME280;6149;52.418;13.668;2023-01-30T08:48:05;100080.31;;;2.71;100.00
12172;BME280;6149;52.418;13.668;2023-01-30T08:50:32;100096.84;;;2.69;100.00
12172;BME280;6149;52.418;13.668;2023-01-30T08:53:04;100108.78;;;2.78;100.00
12172;BME280;6149;52.418;13.668;2023-01-30T08:55:37;100109.59;;;2.80;100.00
12172;BME280;6149;52.418;13.668;2023-01-30T08:58:03;100110.50;;;2.79;100.00
12172;BME280;6149;52.418;13.668;2023-01-30T09:00:31;100107.75;;;2.84;100.00
12172;BME280;6149;52.418;13.668;2023-01-30T09:02:59;100095.81;;;2.75;100.00
12172;BME280;6149;52.418;13.668;2023-01-30T09:05:28;100107.69;;;2.87;100.00
12172;BME280;6149;52.418;13.668;2023-01-30T09:07:55;100108.41;;;2.92;100.00
12172;BME280;6149;52.418;13.668;2023-01-30T09:10:24;100111.28;;;2.83;100.00
12172;BME280;6149;52.418;13.668;2023-01-30T09:12:54;100107.41;;;2.96;100.00
12172;BME280;6149;52.418;13.668;2023-01-30T09:15:25;100115.03;;;3.02;100.00
12172;BME280;6149;52.418;13.668;2023-01-30T09:17:52;100118.31;;;3.09;100.00
12172;BME280;6149;52.418;13.668;2023-01-30T09:20:22;100113.00;;;3.12;100.00
12172;BME280;6149;52.418;13.668;2023-01-30T09:22:54;100108.69;;;3.11;100.00
12172;BME280;6149;52.418;13.668;2023-01-30T09:25:22;100113.75;;;3.15;100.00
12172;BME280;6149;52.418;13.668;2023-01-30T09:27:50;100112.00;;;3.16;100.00
12172;BME280;6149;52.418;13.668;2023-01-30T09:30:20;100126.69;;;3.20;100.00
12172;BME280;6149;52.418;13.668;2023-01-30T09:32:58;100121.13;;;3.30;100.00
12172;BME280;6149;52.418;13.668;2023-01-30T09:35:26;100123.06;;;3.24;100.00
12172;BME280;6149;52.418;13.668;2023-01-30T09:37:54;100119.38;;;3.31;100.00
12172;BME280;6149;52.418;13.668;2023-01-30T09:40:26;100128.81;;;3.35;100.00
12172;BME280;6149;52.418;13.668;2023-01-30T09:43:20;100129.66;;;3.35;100.00
12172;BME280;6149;52.418;13.668;2023-01-30T09:46:11;100128.34;;;3.50;100.00
12172;BME280;6149;52.418;13.668;2023-01-30T09:48:55;100127.34;;;3.54;100.00
12172;BME280;6149;52.418;13.668;2023-01-30T09:51:42;100126.22;;;3.61;100.00
12172;BME280;6149;52.418;13.668;2023-01-30T09:54:20;100108.78;;;3.62;100.00
12172;BME280;6149;52.418;13.668;2023-01-30T09:56:55;100115.78;;;3.61;100.00
12172;BME280;6149;52.418;13.668;2023-01-30T09:59:33;100110.97;;;3.74;100.00
12172;BME280;6149;52.418;13.668;2023-01-30T10:02:23;100109.88;;;3.81;100.00
12172;BME280;6149;52.418;13.668;2023-01-30T10:04:56;100102.31;;;3.98;100.00
12172;BME280;6149;52.418;13.668;2023-01-30T10:07:34;100101.38;;;4.01;100.00
12172;BME280;6149;52.418;13.668;2023-01-30T10:10:14;100093.06;;;4.13;100.00
12172;BME280;6149;52.418;13.668;2023-01-30T10:12:52;100094.84;;;4.13;100.00
12172;BME280;6149;52.418;13.668;2023-01-30T10:15:35;100101.31;;;4.27;100.00
12172;BME280;6149;52.418;13.668;2023-01-30T10:18:38;100105.09;;;4.44;100.00
12172;BME280;6149;52.418;13.668;2023-01-30T10:21:21;100101.88;;;4.35;100.00
12172;BME280;6149;52.418;13.668;2023-01-30T10:24:10;100093.88;;;4.40;100.00
12172;BME280;6149;52.418;13.668;2023-01-30T10:26:55;100091.31;;;4.39;100.00
12172;BME280;6149;52.418;13.668;2023-01-30T10:29:27;100100.06;;;4.61;100.00
12172;BME280;6149;52.418;13.668;2023-01-30T10:32:02;100099.50;;;4.53;100.00
12172;BME280;6149;52.418;13.668;2023-01-30T10:34:37;100105.31;;;4.61;100.00
12172;BME280;6149;52.418;13.668;2023-01-30T10:37:10;100106.75;;;4.69;100.00
12172;BME280;6149;52.418;13.668;2023-01-30T10:39:45;100092.56;;;4.75;100.00
12172;BME280;6149;52.418;13.668;2023-01-30T10:42:22;100081.13;;;4.78;100.00
12172;BME280;6149;52.418;13.668;2023-01-30T10:45:09;100080.69;;;4.88;100.00
12172;BME280;6149;52.418;13.668;2023-01-30T10:47:45;100082.75;;;5.03;100.00
12172;BME280;6149;52.418;13.668;2023-01-30T10:50:22;100070.31;;;5.09;100.00
12172;BME280;6149;52.418;13.668;2023-01-30T10:52:58;100083.72;;;5.01;100.00
12172;BME280;6149;52.418;13.668;2023-01-30T10:55:34;100078.41;;;5.02;100.00
12172;BME280;6149;52.418;13.668;2023-01-30T10:58:12;100069.53;;;5.07;100.00
12172;BME280;6149;52.418;13.668;2023-01-30T11:00:46;100080.84;;;5.07;100.00
12172;BME280;6149;52.418;13.668;2023-01-30T11:03:21;100079.16;;;5.06;100.00
12172;BME280;6149;52.418;13.668;2023-01-30T11:06:02;100067.34;;;5.18;100.00
12172;BME280;6149;52.418;13.668;2023-01-30T11:08:34;100071.06;;;5.12;100.00
12172;BME280;6149;52.418;13.668;2023-01-30T11:11:22;100066.78;;;5.10;100.00
12172;BME280;6149;52.418;13.668;2023-01-30T11:14:01;100068.03;;;5.21;100.00
12172;BME280;6149;52.418;13.668;2023-01-30T11:16:30;100065.19;;;5.27;100.00
12172;BME280;6149;52.418;13.668;2023-01-30T11:19:03;100055.25;;;5.35;100.00
12172;BME280;6149;52.418;13.668;2023-01-30T11:21:33;100053.59;;;5.33;100.00
12172;BME280;6149;52.418;13.668;2023-01-30T11:24:04;100047.19;;;5.40;100.00
12172;BME280;6149;52.418;13.668;2023-01-30T11:26:37;100038.19;;;5.47;100.00
12172;BME280;6149;52.418;13.668;2023-01-30T11:29:24;100038.84;;;5.52;100.00
12172;BME280;6149;52.418;13.668;2023-01-30T11:32:00;100031.22;;;5.46;100.00
12172;BME280;6149;52.418;13.668;2023-01-30T11:34:31;100024.53;;;5.39;100.00
12172;BME280;6149;52.418;13.668;2023-01-30T11:37:22;100023.34;;;5.46;100.00
12172;BME280;6149;52.418;13.668;2023-01-30T11:39:57;100017.50;;;5.60;100.00
12172;BME280;6149;52.418;13.668;2023-01-30T11:42:29;100009.31;;;5.67;100.00
12172;BME280;6149;52.418;13.668;2023-01-30T11:44:59;100010.38;;;5.63;100.00
12172;BME280;6149;52.418;13.668;2023-01-30T11:47:29;100000.34;;;5.73;100.00
12172;BME280;6149;52.418;13.668;2023-01-30T11:49:58;99999.63;;;5.69;100.00
12172;BME280;6149;52.418;13.668;2023-01-30T11:52:33;99998.72;;;5.70;100.00
12172;BME280;6149;52.418;13.668;2023-01-30T11:55:06;99995.28;;;5.68;100.00
12172;BME280;6149;52.418;13.668;2023-01-30T11:57:40;99984.88;;;5.67;100.00
12172;BME280;6149;52.418;13.668;2023-01-30T12:00:17;99987.88;;;5.58;100.00
12172;BME280;6149;52.418;13.668;2023-01-30T12:02:47;99987.03;;;5.57;100.00
12172;BME280;6149;52.418;13.668;2023-01-30T12:05:23;99976.81;;;5.51;100.00
12172;BME280;6149;52.418;13.668;2023-01-30T12:07:52;99965.47;;;5.51;100.00
12172;BME280;6149;52.418;13.668;2023-01-30T12:10:40;99965.06;;;5.60;100.00
12172;BME280;6149;52.418;13.668;2023-01-30T12:13:14;99961.16;;;5.50;100.00
12172;BME280;6149;52.418;13.668;2023-01-30T12:15:45;99965.63;;;5.48;100.00
12172;BME280;6149;52.418;13.668;2023-01-30T12:18:20;99944.69;;;5.66;100.00
12172;BME280;6149;52.418;13.668;2023-01-30T12:20:56;99950.66;;;5.70;100.00
12172;BME280;6149;52.418;13.668;2023-01-30T12:23:37;99957.25;;;5.58;100.00
12172;BME280;6149;52.418;13.668;2023-01-30T12:26:10;99960.47;;;5.65;100.00
12172;BME280;6149;52.418;13.668;2023-01-30T12:28:47;99979.44;;;5.51;100.00
12172;BME280;6149;52.418;13.668;2023-01-30T12:31:23;99986.56;;;5.27;100.00
12172;BME280;6149;52.418;13.668;2023-01-30T12:33:57;99967.06;;;4.70;100.00
12172;BME280;6149;52.418;13.668;2023-01-30T12:36:34;99963.38;;;4.53;100.00
12172;BME280;6149;52.418;13.668;2023-01-30T12:39:37;99953.41;;;4.41;100.00
12172;BME280;6149;52.418;13.668;2023-01-30T12:42:23;99953.41;;;4.41;100.00
12172;BME280;6149;52.418;13.668;2023-01-30T12:45:31;99936.28;;;4.54;100.00
12172;BME280;6149;52.418;13.668;2023-01-30T12:48:32;99937.75;;;4.61;100.00
12172;BME280;6149;52.418;13.668;2023-01-30T12:51:14;99935.69;;;4.69;100.00
12172;BME280;6149;52.418;13.668;2023-01-30T12:53:58;99935.44;;;4.75;100.00
12172;BME280;6149;52.418;13.668;2023-01-30T12:56:47;99945.22;;;4.92;100.00
12172;BME280;6149;52.418;13.668;2023-01-30T12:59:23;99940.22;;;5.08;100.00
12172;BME280;6149;52.418;13.668;2023-01-30T13:02:08;99935.91;;;5.07;100.00
12172;BME280;6149;52.418;13.668;2023-01-30T13:04:53;99927.72;;;5.14;100.00
12172;BME280;6149;52.418;13.668;2023-01-30T13:07:41;99935.53;;;5.16;100.00
12172;BME280;6149;52.418;13.668;2023-01-30T13:10:24;99942.97;;;5.25;100.00
12172;BME280;6149;52.418;13.668;2023-01-30T13:13:10;99924.00;;;5.40;100.00
12172;BME280;6149;52.418;13.668;2023-01-30T13:15:47;99934.84;;;5.31;100.00
12172;BME280;6149;52.418;13.668;2023-01-30T13:18:23;99926.41;;;5.45;100.00
12172;BME280;6149;52.418;13.668;2023-01-30T13:20:56;99929.88;;;5.45;100.00